sensor_id;sensor_type;location;lat;lon;timestamp;P1;durP1;ratioP1;P2;durP2;ratioP2
6406;SDS011;3236;51.022;6.818;2023-12-22T00:00:40;3.05;;;0.65;;
6406;SDS011;3236;51.022;6.818;2023-12-22T00:03:09;5.68;;;1.30;;
6406;SDS011;3236;51.022;6.818;2023-12-22T00:05:36;2.75;;;0.85;;
6406;SDS011;3236;51.022;6.818;2023-12-22T00:08:03;7.95;;;1.20;;
6406;SDS011;3236;51.022;6.818;2023-12-22T00:10:32;0.45;;;0.43;;
6406;SDS011;3236;51.022;6.818;2023-12-22T00:12:59;4.63;;;0.80;;
6406;SDS011;3236;51.022;6.818;2023-12-22T00:15:26;6.55;;;0.88;;
6406;SDS011;3236;51.022;6.818;2023-12-22T00:17:54;7.65;;;1.10;;
6406;SDS011;3236;51.022;6.818;2023-12-22T00:20:26;8.40;;;0.90;;
6406;SDS011;3236;51.022;6.818;2023-12-22T00:22:53;4.72;;;0.70;;
6406;SDS011;3236;51.022;6.818;2023-12-22T00:25:29;7.03;;;0.95;;
6406;SDS011;3236;51.022;6.818;2023-12-22T00:27:56;6.50;;;1.40;;
6406;SDS011;3236;51.022;6.818;2023-12-22T00:30:26;13.45;;;1.48;;
6406;SDS011;3236;51.022;6.818;2023-12-22T00:32:53;7.05;;;1.10;;
6406;SDS011;3236;51.022;6.818;2023-12-22T00:35:21;9.88;;;2.13;;
6406;SDS011;3236;51.022;6.818;2023-12-22T00:37:50;4.15;;;1.08;;
6406;SDS011;3236;51.022;6.818;2023-12-22T00:40:18;4.45;;;0.98;;
6406;SDS011;3236;51.022;6.818;2023-12-22T00:42:45;7.47;;;2.17;;
6406;SDS011;3236;51.022;6.818;2023-12-22T00:45:13;5.65;;;1.20;;
6406;SDS011;3236;51.022;6.818;2023-12-22T00:47:40;4.60;;;0.85;;
6406;SDS011;3236;51.022;6.818;2023-12-22T00:50:07;9.63;;;1.33;;
6406;SDS011;3236;51.022;6.818;2023-12-22T00:52:35;4.97;;;1.10;;
6406;SDS011;3236;51.022;6.818;2023-12-22T00:55:05;6.60;;;1.20;;
6406;SDS011;3236;51.022;6.818;2023-12-22T00:57:32;7.28;;;1.08;;
6406;SDS011;3236;51.022;6.818;2023-12-22T01:00:00;14.82;;;1.70;;
6406;SDS011;3236;51.022;6.818;2023-12-22T01:02:29;5.70;;;0.95;;
6406;SDS011;3236;51.022;6.818;2023-12-22T01:04:57;8.48;;;1.75;;
6406;SDS011;3236;51.022;6.818;2023-12-22T01:07:24;10.00;;;1.70;;
6406;SDS011;3236;51.022;6.818;2023-12-22T01:09:51;6.95;;;1.33;;
6406;SDS011;3236;51.022;6.818;2023-12-22T01:12:24;13.32;;;2.13;;
6406;SDS011;3236;51.022;6.818;2023-12-22T01:14:52;7.60;;;1.35;;
6406;SDS011;3236;51.022;6.818;2023-12-22T01:17:19;8.38;;;1.63;;
6406;SDS011;3236;51.022;6.818;2023-12-22T01:19:46;13.98;;;1.63;;
6406;SDS011;3236;51.022;6.818;2023-12-22T01:22:14;10.65;;;1.38;;
6406;SDS011;3236;51.022;6.818;2023-12-22T01:24:45;9.40;;;1.60;;
6406;SDS011;3236;51.022;6.818;2023-12-22T01:27:12;10.15;;;1.60;;
6406;SDS011;3236;51.022;6.818;2023-12-22T01:29:40;6.30;;;2.03;;
6406;SDS011;3236;51.022;6.818;2023-12-22T01:32:08;7.68;;;1.38;;
6406;SDS011;3236;51.022;6.818;2023-12-22T01:34:35;5.95;;;1.23;;
6406;SDS011;3236;51.022;6.818;2023-12-22T01:37:02;17.38;;;1.27;;
6406;SDS011;3236;51.022;6.818;2023-12-22T01:39:29;17.00;;;2.25;;
6406;SDS011;3236;51.022;6.818;2023-12-22T01:42:03;7.13;;;1.23;;
6406;SDS011;3236;51.022;6.818;2023-12-22T01:44:30;11.93;;;1.73;;
6406;SDS011;3236;51.022;6.818;2023-12-22T01:47:00;6.65;;;1.33;;
6406;SDS011;3236;51.022;6.818;2023-12-22T01:49:28;15.20;;;1.48;;
6406;SDS011;3236;51.022;6.818;2023-12-22T01:51:56;23.92;;;2.30;;
6406;SDS011;3236;51.022;6.818;2023-12-22T01:54:23;5.97;;;1.80;;
6406;SDS011;3236;51.022;6.818;2023-12-22T01:56:51;9.27;;;2.47;;
6406;SDS011;3236;51.022;6.818;2023-12-22T01:59:18;6.20;;;1.33;;
6406;SDS011;3236;51.022;6.818;2023-12-22T02:01:45;11.95;;;1.38;;
6406;SDS011;3236;51.022;6.818;2023-12-22T02:04:15;8.27;;;1.00;;
6406;SDS011;3236;51.022;6.818;2023-12-22T02:06:45;9.23;;;1.83;;
6406;SDS011;3236;51.022;6.818;2023-12-22T02:09:13;9.00;;;1.88;;
6406;SDS011;3236;51.022;6.818;2023-12-22T02:11:40;11.18;;;1.40;;
6406;SDS011;3236;51.022;6.818;2023-12-22T02:14:07;12.13;;;1.80;;
6406;SDS011;3236;51.022;6.818;2023-12-22T02:16:37;7.68;;;1.55;;
6406;SDS011;3236;51.022;6.818;2023-12-22T02:19:13;10.63;;;1.52;;
6406;SDS011;3236;51.022;6.818;2023-12-22T02:22:03;11.50;;;1.73;;
6406;SDS011;3236;51.022;6.818;2023-12-22T02:24:33;8.90;;;1.55;;
6406;SDS011;3236;51.022;6.818;2023-12-22T02:27:03;12.23;;;2.25;;
6406;SDS011;3236;51.022;6.818;2023-12-22T02:29:32;16.63;;;1.80;;
6406;SDS011;3236;51.022;6.818;2023-12-22T02:32:06;8.93;;;1.63;;
6406;SDS011;3236;51.022;6.818;2023-12-22T02:34:39;16.48;;;2.50;;
6406;SDS011;3236;51.022;6.818;2023-12-22T02:37:09;10.48;;;1.67;;
6406;SDS011;3236;51.022;6.818;2023-12-22T02:39:39;13.60;;;2.17;;
6406;SDS011;3236;51.022;6.818;2023-12-22T02:42:07;7.82;;;1.60;;
6406;SDS011;3236;51.022;6.818;2023-12-22T02:44:35;11.52;;;2.15;;
6406;SDS011;3236;51.022;6.818;2023-12-22T02:47:02;10.90;;;1.80;;
6406;SDS011;3236;51.022;6.818;2023-12-22T02:49:29;14.13;;;1.83;;
6406;SDS011;3236;51.022;6.818;2023-12-22T02:51:57;14.70;;;3.17;;
6406;SDS011;3236;51.022;6.818;2023-12-22T02:54:24;16.98;;;3.00;;
6406;SDS011;3236;51.022;6.818;2023-12-22T02:56:54;11.18;;;3.00;;
6406;SDS011;3236;51.022;6.818;2023-12-22T02:59:21;16.23;;;2.15;;
6406;SDS011;3236;51.022;6.818;2023-12-22T03:01:48;18.60;;;2.55;;
6406;SDS011;3236;51.022;6.818;2023-12-22T03:04:16;13.20;;;2.80;;
6406;SDS011;3236;51.022;6.818;2023-12-22T03:06:43;10.98;;;1.75;;
6406;SDS011;3236;51.022;6.818;2023-12-22T03:09:10;17.48;;;2.00;;
6406;SDS011;3236;51.022;6.818;2023-12-22T03:11:38;13.10;;;2.35;;
6406;SDS011;3236;51.022;6.818;2023-12-22T03:14:06;24.27;;;2.58;;
6406;SDS011;3236;51.022;6.818;2023-12-22T03:16:33;16.88;;;2.35;;
6406;SDS011;3236;51.022;6.818;2023-12-22T03:19:00;20.38;;;3.65;;
6406;SDS011;3236;51.022;6.818;2023-12-22T03:21:28;14.00;;;2.10;;
6406;SDS011;3236;51.022;6.818;2023-12-22T03:23:55;13.60;;;1.88;;
6406;SDS011;3236;51.022;6.818;2023-12-22T03:26:22;22.60;;;3.95;;
6406;SDS011;3236;51.022;6.818;2023-12-22T03:28:49;20.83;;;3.42;;
6406;SDS011;3236;51.022;6.818;2023-12-22T03:31:18;21.35;;;2.95;;
6406;SDS011;3236;51.022;6.818;2023-12-22T03:33:45;21.40;;;3.03;;
6406;SDS011;3236;51.022;6.818;2023-12-22T03:36:13;16.42;;;2.58;;
6406;SDS011;3236;51.022;6.818;2023-12-22T03:38:40;29.10;;;2.60;;
6406;SDS011;3236;51.022;6.818;2023-12-22T03:41:07;19.98;;;3.30;;
6406;SDS011;3236;51.022;6.818;2023-12-22T03:43:34;11.35;;;1.80;;
6406;SDS011;3236;51.022;6.818;2023-12-22T03:46:02;22.45;;;2.92;;
6406;SDS011;3236;51.022;6.818;2023-12-22T03:48:31;13.77;;;2.75;;
6406;SDS011;3236;51.022;6.818;2023-12-22T03:50:58;11.82;;;1.83;;
6406;SDS011;3236;51.022;6.818;2023-12-22T03:53:25;22.58;;;2.90;;
6406;SDS011;3236;51.022;6.818;2023-12-22T03:55:52;10.73;;;1.65;;
6406;SDS011;3236;51.022;6.818;2023-12-22T03:58:20;14.13;;;1.98;;
6406;SDS011;3236;51.022;6.818;2023-12-22T04:00:47;14.20;;;1.63;;
6406;SDS011;3236;51.022;6.818;2023-12-22T04:03:16;8.52;;;1.80;;
6406;SDS011;3236;51.022;6.818;2023-12-22T04:05:44;7.25;;;2.40;;
6406;SDS011;3236;51.022;6.818;2023-12-22T04:08:12;14.35;;;1.75;;
6406;SDS011;3236;51.022;6.818;2023-12-22T04:10:39;6.18;;;1.60;;
6406;SDS011;3236;51.022;6.818;2023-12-22T04:13:08;10.35;;;1.80;;
6406;SDS011;3236;51.022;6.818;2023-12-22T04:15:36;4.93;;;1.17;;
6406;SDS011;3236;51.022;6.818;2023-12-22T04:18:03;16.42;;;2.08;;
6406;SDS011;3236;51.022;6.818;2023-12-22T04:20:30;13.70;;;2.03;;
6406;SDS011;3236;51.022;6.818;2023-12-22T04:22:59;12.13;;;2.03;;
6406;SDS011;3236;51.022;6.818;2023-12-22T04:25:26;15.18;;;1.77;;
6406;SDS011;3236;51.022;6.818;2023-12-22T04:27:54;11.63;;;2.47;;
6406;SDS011;3236;51.022;6.818;2023-12-22T04:30:21;4.88;;;1.05;;
6406;SDS011;3236;51.022;6.818;2023-12-22T04:32:48;7.80;;;2.58;;
6406;SDS011;3236;51.022;6.818;2023-12-22T04:35:15;13.07;;;1.23;;
6406;SDS011;3236;51.022;6.818;2023-12-22T04:37:42;7.18;;;1.55;;
6406;SDS011;3236;51.022;6.818;2023-12-22T04:40:11;9.85;;;1.70;;
6406;SDS011;3236;51.022;6.818;2023-12-22T04:42:38;8.18;;;1.35;;
6406;SDS011;3236;51.022;6.818;2023-12-22T04:45:06;11.40;;;2.10;;
6406;SDS011;3236;51.022;6.818;2023-12-22T04:47:33;21.35;;;2.92;;
6406;SDS011;3236;51.022;6.818;2023-12-22T04:50:00;14.20;;;2.00;;
6406;SDS011;3236;51.022;6.818;2023-12-22T04:52:28;10.43;;;1.55;;
6406;SDS011;3236;51.022;6.818;2023-12-22T04:54:55;7.03;;;2.28;;
6406;SDS011;3236;51.022;6.818;2023-12-22T04:57:23;5.85;;;1.40;;
6406;SDS011;3236;51.022;6.818;2023-12-22T04:59:51;6.75;;;1.48;;
6406;SDS011;3236;51.022;6.818;2023-12-22T05:02:18;13.15;;;2.10;;
6406;SDS011;3236;51.022;6.818;2023-12-22T05:04:45;8.05;;;2.05;;
6406;SDS011;3236;51.022;6.818;2023-12-22T05:07:13;20.23;;;2.45;;
6406;SDS011;3236;51.022;6.818;2023-12-22T05:09:41;14.55;;;1.88;;
6406;SDS011;3236;51.022;6.818;2023-12-22T05:12:08;16.80;;;2.72;;
6406;SDS011;3236;51.022;6.818;2023-12-22T05:14:37;9.68;;;2.00;;
6406;SDS011;3236;51.022;6.818;2023-12-22T05:17:04;10.70;;;1.58;;
6406;SDS011;3236;51.022;6.818;2023-12-22T05:19:32;12.05;;;2.35;;
6406;SDS011;3236;51.022;6.818;2023-12-22T05:21:59;13.77;;;3.20;;
6406;SDS011;3236;51.022;6.818;2023-12-22T05:24:27;16.13;;;1.98;;
6406;SDS011;3236;51.022;6.818;2023-12-22T05:26:57;16.13;;;3.95;;
6406;SDS011;3236;51.022;6.818;2023-12-22T05:29:24;14.30;;;2.08;;
6406;SDS011;3236;51.022;6.818;2023-12-22T05:31:53;9.52;;;1.80;;
6406;SDS011;3236;51.022;6.818;2023-12-22T05:34:20;18.25;;;2.33;;
6406;SDS011;3236;51.022;6.818;2023-12-22T05:36:47;18.48;;;3.90;;
6406;SDS011;3236;51.022;6.818;2023-12-22T05:39:15;18.33;;;2.58;;
6406;SDS011;3236;51.022;6.818;2023-12-22T05:41:42;13.77;;;1.77;;
6406;SDS011;3236;51.022;6.818;2023-12-22T05:44:09;9.43;;;1.55;;
6406;SDS011;3236;51.022;6.818;2023-12-22T05:46:36;7.28;;;1.60;;
6406;SDS011;3236;51.022;6.818;2023-12-22T05:49:05;12.85;;;1.83;;
6406;SDS011;3236;51.022;6.818;2023-12-22T05:51:36;10.32;;;1.80;;
6406;SDS011;3236;51.022;6.818;2023-12-22T05:54:04;17.17;;;2.92;;
6406;SDS011;3236;51.022;6.818;2023-12-22T05:56:31;10.43;;;2.08;;
6406;SDS011;3236;51.022;6.818;2023-12-22T05:58:59;7.18;;;1.38;;
6406;SDS011;3236;51.022;6.818;2023-12-22T06:01:28;7.57;;;1.75;;
6406;SDS011;3236;51.022;6.818;2023-12-22T06:04:06;10.30;;;2.88;;
6406;SDS011;3236;51.022;6.818;2023-12-22T06:06:33;12.73;;;1.70;;
6406;SDS011;3236;51.022;6.818;2023-12-22T06:09:00;10.75;;;2.75;;
6406;SDS011;3236;51.022;6.818;2023-12-22T06:11:28;22.67;;;2.10;;
6406;SDS011;3236;51.022;6.818;2023-12-22T06:13:55;8.63;;;1.38;;
6406;SDS011;3236;51.022;6.818;2023-12-22T06:16:23;6.82;;;1.58;;
6406;SDS011;3236;51.022;6.818;2023-12-22T06:18:50;21.30;;;2.58;;
6406;SDS011;3236;51.022;6.818;2023-12-22T06:21:20;7.60;;;1.65;;
6406;SDS011;3236;51.022;6.818;2023-12-22T06:23:50;8.00;;;1.40;;
6406;SDS011;3236;51.022;6.818;2023-12-22T06:26:17;19.27;;;2.38;;
6406;SDS011;3236;51.022;6.818;2023-12-22T06:28:45;13.43;;;2.03;;
6406;SDS011;3236;51.022;6.818;2023-12-22T06:31:18;13.23;;;2.35;;
6406;SDS011;3236;51.022;6.818;2023-12-22T06:33:51;11.57;;;2.47;;
6406;SDS011;3236;51.022;6.818;2023-12-22T06:36:20;12.18;;;2.53;;
6406;SDS011;3236;51.022;6.818;2023-12-22T06:38:48;7.10;;;2.13;;
6406;SDS011;3236;51.022;6.818;2023-12-22T06:41:22;11.57;;;1.92;;
6406;SDS011;3236;51.022;6.818;2023-12-22T06:43:50;14.20;;;2.70;;
6406;SDS011;3236;51.022;6.818;2023-12-22T06:46:18;9.73;;;2.97;;
6406;SDS011;3236;51.022;6.818;2023-12-22T06:48:47;8.70;;;1.75;;
6406;SDS011;3236;51.022;6.818;2023-12-22T06:51:20;5.70;;;1.20;;
6406;SDS011;3236;51.022;6.818;2023-12-22T06:53:51;10.55;;;1.10;;
6406;SDS011;3236;51.022;6.818;2023-12-22T06:56:20;7.63;;;0.75;;
6406;SDS011;3236;51.022;6.818;2023-12-22T06:58:52;7.80;;;0.90;;
6406;SDS011;3236;51.022;6.818;2023-12-22T07:01:22;5.85;;;1.00;;
6406;SDS011;3236;51.022;6.818;2023-12-22T07:03:53;4.82;;;1.10;;
6406;SDS011;3236;51.022;6.818;2023-12-22T07:06:23;4.65;;;1.02;;
6406;SDS011;3236;51.022;6.818;2023-12-22T07:11:58;5.82;;;1.00;;
6406;SDS011;3236;51.022;6.818;2023-12-22T07:14:24;5.03;;;1.10;;
6406;SDS011;3236;51.022;6.818;2023-12-22T07:16:51;6.00;;;1.00;;
6406;SDS011;3236;51.022;6.818;2023-12-22T07:19:19;3.67;;;1.40;;
6406;SDS011;3236;51.022;6.818;2023-12-22T07:21:47;7.80;;;1.33;;
6406;SDS011;3236;51.022;6.818;2023-12-22T07:24:19;9.23;;;1.55;;
6406;SDS011;3236;51.022;6.818;2023-12-22T07:26:46;6.63;;;1.40;;
6406;SDS011;3236;51.022;6.818;2023-12-22T07:29:14;5.25;;;1.00;;
6406;SDS011;3236;51.022;6.818;2023-12-22T07:31:41;8.77;;;1.73;;
6406;SDS011;3236;51.022;6.818;2023-12-22T07:34:08;10.80;;;1.90;;
6406;SDS011;3236;51.022;6.818;2023-12-22T07:36:36;5.97;;;1.88;;
6406;SDS011;3236;51.022;6.818;2023-12-22T07:39:04;9.05;;;1.95;;
6406;SDS011;3236;51.022;6.818;2023-12-22T07:41:32;5.18;;;1.35;;
6406;SDS011;3236;51.022;6.818;2023-12-22T07:43:59;14.70;;;1.65;;
6406;SDS011;3236;51.022;6.818;2023-12-22T07:46:27;13.10;;;1.95;;
6406;SDS011;3236;51.022;6.818;2023-12-22T07:48:55;10.05;;;1.73;;
6406;SDS011;3236;51.022;6.818;2023-12-22T07:51:23;13.00;;;1.75;;
6406;SDS011;3236;51.022;6.818;2023-12-22T07:53:50;20.42;;;3.53;;
6406;SDS011;3236;51.022;6.818;2023-12-22T07:56:19;15.48;;;3.00;;
6406;SDS011;3236;51.022;6.818;2023-12-22T07:58:48;19.67;;;3.08;;
6406;SDS011;3236;51.022;6.818;2023-12-22T08:01:15;25.55;;;4.45;;
6406;SDS011;3236;51.022;6.818;2023-12-22T08:03:42;22.83;;;4.57;;
6406;SDS011;3236;51.022;6.818;2023-12-22T08:06:10;25.60;;;3.92;;
6406;SDS011;3236;51.022;6.818;2023-12-22T08:08:39;20.67;;;3.65;;
6406;SDS011;3236;51.022;6.818;2023-12-22T08:11:06;31.75;;;3.95;;
6406;SDS011;3236;51.022;6.818;2023-12-22T08:13:35;22.52;;;4.28;;
6406;SDS011;3236;51.022;6.818;2023-12-22T08:16:02;28.55;;;4.80;;
6406;SDS011;3236;51.022;6.818;2023-12-22T08:18:30;34.22;;;5.25;;
6406;SDS011;3236;51.022;6.818;2023-12-22T08:20:58;21.85;;;4.75;;
6406;SDS011;3236;51.022;6.818;2023-12-22T08:23:25;13.45;;;3.00;;
6406;SDS011;3236;51.022;6.818;2023-12-22T08:25:55;15.30;;;3.35;;
6406;SDS011;3236;51.022;6.818;2023-12-22T08:28:23;27.37;;;4.93;;
6406;SDS011;3236;51.022;6.818;2023-12-22T08:30:52;35.25;;;4.95;;
6406;SDS011;3236;51.022;6.818;2023-12-22T08:33:19;31.48;;;5.45;;
6406;SDS011;3236;51.022;6.818;2023-12-22T08:35:47;17.73;;;3.20;;
6406;SDS011;3236;51.022;6.818;2023-12-22T08:38:14;25.83;;;3.90;;
6406;SDS011;3236;51.022;6.818;2023-12-22T08:40:42;18.15;;;3.65;;
6406;SDS011;3236;51.022;6.818;2023-12-22T08:43:10;31.25;;;5.85;;
6406;SDS011;3236;51.022;6.818;2023-12-22T08:45:39;18.50;;;3.10;;
6406;SDS011;3236;51.022;6.818;2023-12-22T08:48:07;25.55;;;4.60;;
6406;SDS011;3236;51.022;6.818;2023-12-22T08:50:38;15.85;;;3.28;;
6406;SDS011;3236;51.022;6.818;2023-12-22T08:53:05;25.60;;;5.15;;
6406;SDS011;3236;51.022;6.818;2023-12-22T08:55:33;23.00;;;3.80;;
6406;SDS011;3236;51.022;6.818;2023-12-22T08:58:00;14.98;;;3.90;;
6406;SDS011;3236;51.022;6.818;2023-12-22T09:00:28;21.77;;;5.25;;
6406;SDS011;3236;51.022;6.818;2023-12-22T09:02:55;28.40;;;4.38;;
6406;SDS011;3236;51.022;6.818;2023-12-22T09:05:24;19.80;;;3.47;;
6406;SDS011;3236;51.022;6.818;2023-12-22T09:07:51;22.38;;;2.95;;
6406;SDS011;3236;51.022;6.818;2023-12-22T09:10:18;28.38;;;3.70;;
6406;SDS011;3236;51.022;6.818;2023-12-22T09:12:45;19.48;;;3.78;;
6406;SDS011;3236;51.022;6.818;2023-12-22T09:15:16;23.63;;;2.88;;
6406;SDS011;3236;51.022;6.818;2023-12-22T09:17:43;20.38;;;5.38;;
6406;SDS011;3236;51.022;6.818;2023-12-22T09:20:10;14.38;;;3.05;;
6406;SDS011;3236;51.022;6.818;2023-12-22T09:22:39;8.93;;;2.53;;
6406;SDS011;3236;51.022;6.818;2023-12-22T09:25:06;18.42;;;3.08;;
6406;SDS011;3236;51.022;6.818;2023-12-22T09:27:34;12.77;;;2.88;;
6406;SDS011;3236;51.022;6.818;2023-12-22T09:30:02;19.50;;;4.25;;
6406;SDS011;3236;51.022;6.818;2023-12-22T09:32:32;14.55;;;3.97;;
6406;SDS011;3236;51.022;6.818;2023-12-22T09:35:00;18.42;;;3.50;;
6406;SDS011;3236;51.022;6.818;2023-12-22T09:37:28;19.02;;;2.58;;
6406;SDS011;3236;51.022;6.818;2023-12-22T09:39:56;16.73;;;3.05;;
6406;SDS011;3236;51.022;6.818;2023-12-22T09:42:25;9.02;;;2.55;;
6406;SDS011;3236;51.022;6.818;2023-12-22T09:44:53;17.23;;;4.50;;
6406;SDS011;3236;51.022;6.818;2023-12-22T09:47:22;16.15;;;2.17;;
6406;SDS011;3236;51.022;6.818;2023-12-22T09:49:50;8.65;;;2.30;;
6406;SDS011;3236;51.022;6.818;2023-12-22T09:52:20;9.05;;;2.25;;
6406;SDS011;3236;51.022;6.818;2023-12-22T09:54:50;16.90;;;2.50;;
6406;SDS011;3236;51.022;6.818;2023-12-22T09:57:22;8.80;;;2.60;;
6406;SDS011;3236;51.022;6.818;2023-12-22T09:59:52;10.65;;;2.58;;
6406;SDS011;3236;51.022;6.818;2023-12-22T10:02:23;13.95;;;2.85;;
6406;SDS011;3236;51.022;6.818;2023-12-22T10:04:52;10.25;;;2.13;;
6406;SDS011;3236;51.022;6.818;2023-12-22T10:07:19;8.75;;;1.92;;
6406;SDS011;3236;51.022;6.818;2023-12-22T10:09:48;13.02;;;2.17;;
6406;SDS011;3236;51.022;6.818;2023-12-22T10:12:16;11.48;;;2.88;;
6406;SDS011;3236;51.022;6.818;2023-12-22T10:14:47;10.38;;;1.52;;
6406;SDS011;3236;51.022;6.818;2023-12-22T10:17:14;7.80;;;1.80;;
6406;SDS011;3236;51.022;6.818;2023-12-22T10:19:42;5.82;;;1.92;;
6406;SDS011;3236;51.022;6.818;2023-12-22T10:22:09;8.50;;;1.50;;
6406;SDS011;3236;51.022;6.818;2023-12-22T10:24:37;8.95;;;1.58;;
6406;SDS011;3236;51.022;6.818;2023-12-22T10:27:04;5.22;;;1.52;;
6406;SDS011;3236;51.022;6.818;2023-12-22T10:29:32;7.90;;;1.77;;
6406;SDS011;3236;51.022;6.818;2023-12-22T10:32:02;2.20;;;1.33;;
6406;SDS011;3236;51.022;6.818;2023-12-22T10:34:34;11.40;;;2.58;;
6406;SDS011;3236;51.022;6.818;2023-12-22T10:37:01;10.20;;;2.35;;
6406;SDS011;3236;51.022;6.818;2023-12-22T10:39:31;7.00;;;1.70;;
6406;SDS011;3236;51.022;6.818;2023-12-22T10:41:59;2.55;;;1.42;;
6406;SDS011;3236;51.022;6.818;2023-12-22T10:44:27;9.68;;;2.65;;
6406;SDS011;3236;51.022;6.818;2023-12-22T10:46:56;6.53;;;2.28;;
6406;SDS011;3236;51.022;6.818;2023-12-22T10:49:25;2.20;;;1.95;;
6406;SDS011;3236;51.022;6.818;2023-12-22T10:51:52;8.50;;;2.28;;
6406;SDS011;3236;51.022;6.818;2023-12-22T10:54:20;7.65;;;3.05;;
6406;SDS011;3236;51.022;6.818;2023-12-22T10:56:48;5.80;;;1.52;;
6406;SDS011;3236;51.022;6.818;2023-12-22T10:59:18;7.32;;;1.63;;
6406;SDS011;3236;51.022;6.818;2023-12-22T11:01:51;3.15;;;1.65;;
6406;SDS011;3236;51.022;6.818;2023-12-22T11:04:20;4.65;;;1.55;;
6406;SDS011;3236;51.022;6.818;2023-12-22T11:06:50;3.20;;;1.50;;
6406;SDS011;3236;51.022;6.818;2023-12-22T11:09:24;4.50;;;1.92;;
6406;SDS011;3236;51.022;6.818;2023-12-22T11:11:57;2.90;;;1.40;;
6406;SDS011;3236;51.022;6.818;2023-12-22T11:14:27;9.95;;;2.40;;
6406;SDS011;3236;51.022;6.818;2023-12-22T11:16:57;2.57;;;2.20;;
6406;SDS011;3236;51.022;6.818;2023-12-22T11:19:27;6.03;;;1.95;;
6406;SDS011;3236;51.022;6.818;2023-12-22T11:21:58;2.13;;;1.60;;
6406;SDS011;3236;51.022;6.818;2023-12-22T11:24:28;5.05;;;1.52;;
6406;SDS011;3236;51.022;6.818;2023-12-22T11:26:57;6.95;;;2.83;;
6406;SDS011;3236;51.022;6.818;2023-12-22T11:29:26;8.65;;;2.45;;
6406;SDS011;3236;51.022;6.818;2023-12-22T11:31:56;2.88;;;1.67;;
6406;SDS011;3236;51.022;6.818;2023-12-22T11:34:25;1.58;;;1.48;;
6406;SDS011;3236;51.022;6.818;2023-12-22T11:36:55;4.32;;;1.85;;
6406;SDS011;3236;51.022;6.818;2023-12-22T11:39:29;2.30;;;1.85;;
6406;SDS011;3236;51.022;6.818;2023-12-22T11:41:59;7.75;;;3.03;;
6406;SDS011;3236;51.022;6.818;2023-12-22T11:44:28;6.45;;;2.13;;
6406;SDS011;3236;51.022;6.818;2023-12-22T11:47:02;3.05;;;1.75;;
6406;SDS011;3236;51.022;6.818;2023-12-22T11:49:33;4.70;;;2.22;;
6406;SDS011;3236;51.022;6.818;2023-12-22T11:52:12;8.30;;;1.70;;
6406;SDS011;3236;51.022;6.818;2023-12-22T11:54:46;5.68;;;1.70;;
6406;SDS011;3236;51.022;6.818;2023-12-22T11:57:32;8.23;;;2.00;;
6406;SDS011;3236;51.022;6.818;2023-12-22T12:00:07;3.58;;;2.03;;
6406;SDS011;3236;51.022;6.818;2023-12-22T12:02:37;5.22;;;1.52;;
6406;SDS011;3236;51.022;6.818;2023-12-22T12:05:05;3.90;;;1.60;;
6406;SDS011;3236;51.022;6.818;2023-12-22T12:07:42;6.68;;;2.95;;
6406;SDS011;3236;51.022;6.818;2023-12-22T12:13:22;4.70;;;1.27;;
6406;SDS011;3236;51.022;6.818;2023-12-22T12:15:51;5.15;;;1.63;;
6406;SDS011;3236;51.022;6.818;2023-12-22T12:18:21;4.25;;;1.45;;
6406;SDS011;3236;51.022;6.818;2023-12-22T12:20:49;2.45;;;1.13;;
6406;SDS011;3236;51.022;6.818;2023-12-22T12:23:18;6.28;;;1.83;;
6406;SDS011;3236;51.022;6.818;2023-12-22T12:25:45;3.50;;;1.70;;
6406;SDS011;3236;51.022;6.818;2023-12-22T12:28:14;5.80;;;1.85;;
6406;SDS011;3236;51.022;6.818;2023-12-22T12:30:43;7.28;;;2.65;;
6406;SDS011;3236;51.022;6.818;2023-12-22T12:33:12;7.03;;;2.08;;
6406;SDS011;3236;51.022;6.818;2023-12-22T12:35:40;7.93;;;1.65;;
6406;SDS011;3236;51.022;6.818;2023-12-22T12:38:09;4.28;;;1.30;;
6406;SDS011;3236;51.022;6.818;2023-12-22T12:40:38;5.15;;;1.40;;
6406;SDS011;3236;51.022;6.818;2023-12-22T12:43:06;9.35;;;1.77;;
6406;SDS011;3236;51.022;6.818;2023-12-22T12:45:34;2.38;;;1.27;;
6406;SDS011;3236;51.022;6.818;2023-12-22T12:48:02;1.83;;;0.93;;
6406;SDS011;3236;51.022;6.818;2023-12-22T12:50:29;4.43;;;1.48;;
6406;SDS011;3236;51.022;6.818;2023-12-22T12:52:57;4.18;;;1.30;;
6406;SDS011;3236;51.022;6.818;2023-12-22T12:55:26;1.25;;;0.80;;
6406;SDS011;3236;51.022;6.818;2023-12-22T12:57:55;3.20;;;1.88;;
6406;SDS011;3236;51.022;6.818;2023-12-22T13:00:28;4.80;;;0.82;;
6406;SDS011;3236;51.022;6.818;2023-12-22T13:02:56;3.85;;;1.10;;
6406;SDS011;3236;51.022;6.818;2023-12-22T13:05:24;1.65;;;1.00;;
6406;SDS011;3236;51.022;6.818;2023-12-22T13:07:51;7.38;;;1.35;;
6406;SDS011;3236;51.022;6.818;2023-12-22T13:10:21;1.67;;;1.02;;
6406;SDS011;3236;51.022;6.818;2023-12-22T13:12:57;0.77;;;0.73;;
6406;SDS011;3236;51.022;6.818;2023-12-22T13:15:31;3.28;;;0.77;;
6406;SDS011;3236;51.022;6.818;2023-12-22T13:17:59;1.42;;;0.80;;
6406;SDS011;3236;51.022;6.818;2023-12-22T13:20:27;1.60;;;0.70;;
6406;SDS011;3236;51.022;6.818;2023-12-22T13:22:56;8.20;;;1.77;;
6406;SDS011;3236;51.022;6.818;2023-12-22T13:25:37;3.85;;;1.30;;
6406;SDS011;3236;51.022;6.818;2023-12-22T13:28:06;6.28;;;1.73;;
6406;SDS011;3236;51.022;6.818;2023-12-22T13:30:34;3.55;;;1.10;;
6406;SDS011;3236;51.022;6.818;2023-12-22T13:33:01;5.18;;;1.40;;
6406;SDS011;3236;51.022;6.818;2023-12-22T13:35:29;4.95;;;1.45;;
6406;SDS011;3236;51.022;6.818;2023-12-22T13:37:56;3.13;;;1.33;;
6406;SDS011;3236;51.022;6.818;2023-12-22T13:40:30;4.47;;;1.35;;
6406;SDS011;3236;51.022;6.818;2023-12-22T13:43:00;4.32;;;1.70;;
6406;SDS011;3236;51.022;6.818;2023-12-22T13:45:29;6.88;;;1.50;;
6406;SDS011;3236;51.022;6.818;2023-12-22T13:47:58;5.97;;;1.98;;
6406;SDS011;3236;51.022;6.818;2023-12-22T13:50:25;3.83;;;0.70;;
6406;SDS011;3236;51.022;6.818;2023-12-22T13:52:54;4.70;;;1.20;;
6406;SDS011;3236;51.022;6.818;2023-12-22T13:55:28;5.05;;;1.77;;
6406;SDS011;3236;51.022;6.818;2023-12-22T13:58:02;5.32;;;1.55;;
6406;SDS011;3236;51.022;6.818;2023-12-22T14:00:34;2.83;;;1.10;;
6406;SDS011;3236;51.022;6.818;2023-12-22T14:03:03;4.07;;;1.02;;
6406;SDS011;3236;51.022;6.818;2023-12-22T14:05:30;8.70;;;1.77;;
6406;SDS011;3236;51.022;6.818;2023-12-22T14:08:00;7.28;;;1.98;;
6406;SDS011;3236;51.022;6.818;2023-12-22T14:10:28;4.85;;;1.00;;
6406;SDS011;3236;51.022;6.818;2023-12-22T14:12:55;9.68;;;1.70;;
6406;SDS011;3236;51.022;6.818;2023-12-22T14:15:22;6.95;;;1.33;;
6406;SDS011;3236;51.022;6.818;2023-12-22T14:17:57;4.22;;;1.27;;
6406;SDS011;3236;51.022;6.818;2023-12-22T14:20:24;5.90;;;1.70;;
6406;SDS011;3236;51.022;6.818;2023-12-22T14:22:53;3.92;;;1.38;;
6406;SDS011;3236;51.022;6.818;2023-12-22T14:25:20;6.10;;;1.77;;
6406;SDS011;3236;51.022;6.818;2023-12-22T14:27:50;5.00;;;1.40;;
6406;SDS011;3236;51.022;6.818;2023-12-22T14:30:18;3.58;;;1.40;;
6406;SDS011;3236;51.022;6.818;2023-12-22T14:32:46;4.43;;;1.58;;
6406;SDS011;3236;51.022;6.818;2023-12-22T14:35:14;9.48;;;1.83;;
6406;SDS011;3236;51.022;6.818;2023-12-22T14:37:41;6.03;;;1.80;;
6406;SDS011;3236;51.022;6.818;2023-12-22T14:40:10;7.00;;;1.73;;
6406;SDS011;3236;51.022;6.818;2023-12-22T14:42:37;4.28;;;1.60;;
6406;SDS011;3236;51.022;6.818;2023-12-22T14:45:05;3.25;;;0.77;;
6406;SDS011;3236;51.022;6.818;2023-12-22T14:47:33;7.68;;;1.35;;
6406;SDS011;3236;51.022;6.818;2023-12-22T14:50:00;4.53;;;1.50;;
6406;SDS011;3236;51.022;6.818;2023-12-22T14:52:33;8.38;;;1.52;;
6406;SDS011;3236;51.022;6.818;2023-12-22T14:55:03;9.75;;;1.55;;
6406;SDS011;3236;51.022;6.818;2023-12-22T14:57:31;6.03;;;1.27;;
6406;SDS011;3236;51.022;6.818;2023-12-22T14:59:58;11.52;;;1.50;;
6406;SDS011;3236;51.022;6.818;2023-12-22T15:02:28;4.88;;;1.17;;
6406;SDS011;3236;51.022;6.818;2023-12-22T15:04:56;5.70;;;1.08;;
6406;SDS011;3236;51.022;6.818;2023-12-22T15:07:23;9.00;;;1.35;;
6406;SDS011;3236;51.022;6.818;2023-12-22T15:09:52;5.22;;;1.42;;
6406;SDS011;3236;51.022;6.818;2023-12-22T15:12:19;11.63;;;2.08;;
6406;SDS011;3236;51.022;6.818;2023-12-22T15:14:46;5.30;;;1.02;;
6406;SDS011;3236;51.022;6.818;2023-12-22T15:17:16;2.20;;;1.10;;
6406;SDS011;3236;51.022;6.818;2023-12-22T15:19:43;5.47;;;1.40;;
6406;SDS011;3236;51.022;6.818;2023-12-22T15:22:11;3.80;;;1.42;;
6406;SDS011;3236;51.022;6.818;2023-12-22T15:24:39;11.40;;;1.30;;